Time,TemperatureF,DewpointF,PressureIn,WindDirection,WindDirectionDegrees,WindSpeedMPH,WindSpeedGustMPH,Humidity,HourlyPrecipIn,Conditions,Clouds,dailyrainin,SolarRadiationWatts/m^2,SoftwareType,DateUTC
2013-02-20 00:21:00,21.0,-1.0,-100.00,North,352,2.0,9.0,37,-99.99,,,0.00,0.000000,,2013-02-20 07:21:00,
2013-02-20 00:31:00,21.0,-1.0,-100.00,North,352,2.0,9.0,37,-99.99,,,0.00,0.000000,,2013-02-20 07:31:00,
2013-02-20 00:42:00,21.0,-1.0,-100.00,North,352,2.0,9.0,37,-99.99,,,0.00,0.000000,,2013-02-20 07:42:00,
2013-02-20 00:51:00,21.0,-1.0,-100.00,North,352,2.0,9.0,37,-99.99,,,0.00,0.000000,,2013-02-20 07:51:00,
2013-02-20 01:21:00,18.0,0.0,-100.00,SSE,152,2.0,5.0,44,0.00,,,0.00,0.000000,,2013-02-20 08:21:00,
2013-02-20 01:31:00,18.0,0.0,-100.00,SSE,152,2.0,5.0,44,0.00,,,0.00,0.000000,,2013-02-20 08:31:00,
2013-02-20 01:41:00,18.0,0.0,-100.00,SSE,152,2.0,5.0,44,0.00,,,0.00,0.000000,,2013-02-20 08:41:00,
2013-02-20 01:52:00,18.0,0.0,-100.00,SSE,152,2.0,5.0,44,0.00,,,0.00,0.000000,,2013-02-20 08:52:00,
2013-02-20 02:21:00,19.0,1.0,-100.00,ENE,72,3.0,6.0,44,0.00,,,0.00,0.000000,,2013-02-20 09:21:00,
2013-02-20 02:31:00,19.0,1.0,-100.00,ENE,72,3.0,6.0,44,0.00,,,0.00,0.000000,,2013-02-20 09:31:00,
2013-02-20 02:42:00,19.0,1.0,-100.00,ENE,72,3.0,6.0,44,0.00,,,0.00,0.000000,,2013-02-20 09:42:00,
2013-02-20 02:51:00,19.0,1.0,-100.00,ENE,72,3.0,6.0,44,0.00,,,0.00,0.000000,,2013-02-20 09:51:00,
2013-02-20 03:22:00,17.0,2.0,-100.00,East,93,2.0,5.0,50,0.00,,,0.00,0.000000,,2013-02-20 10:22:00,
2013-02-20 03:32:00,17.0,2.0,-100.00,East,93,2.0,5.0,50,0.00,,,0.00,0.000000,,2013-02-20 10:32:00,
2013-02-20 03:42:00,17.0,2.0,-100.00,East,93,2.0,5.0,50,0.00,,,0.00,0.000000,,2013-02-20 10:42:00,
2013-02-20 03:51:00,17.0,2.0,-100.00,East,93,2.0,5.0,50,0.00,,,0.00,0.000000,,2013-02-20 10:51:00,
2013-02-20 04:21:00,17.0,0.0,-100.00,WNW,301,2.0,4.0,47,0.00,,,0.00,0.000000,,2013-02-20 11:21:00,
2013-02-20 04:32:00,17.0,0.0,-100.00,WNW,301,2.0,4.0,47,0.00,,,0.00,0.000000,,2013-02-20 11:32:00,
2013-02-20 04:42:00,17.0,0.0,-100.00,WNW,301,2.0,4.0,47,0.00,,,0.00,0.000000,,2013-02-20 11:42:00,
2013-02-20 04:52:00,17.0,0.0,-100.00,WNW,301,2.0,4.0,47,0.00,,,0.00,0.000000,,2013-02-20 11:52:00,
2013-02-20 05:21:00,15.0,1.0,-100.00,ESE,112,1.0,4.0,52,0.00,,,0.00,0.000000,,2013-02-20 12:21:00,
2013-02-20 05:32:00,15.0,1.0,-100.00,ESE,112,1.0,4.0,52,0.00,,,0.00,0.000000,,2013-02-20 12:32:00,
2013-02-20 05:42:00,15.0,1.0,-100.00,ESE,112,1.0,4.0,52,0.00,,,0.00,0.000000,,2013-02-20 12:42:00,
2013-02-20 05:52:00,15.0,1.0,-100.00,ESE,112,1.0,4.0,52,0.00,,,0.00,0.000000,,2013-02-20 12:52:00,
2013-02-20 06:22:00,16.0,2.0,-100.00,NNE,28,2.0,4.0,53,0.00,,,0.00,0.000000,,2013-02-20 13:22:00,
2013-02-20 06:32:00,16.0,2.0,-100.00,NNE,28,2.0,4.0,53,0.00,,,0.00,0.000000,,2013-02-20 13:32:00,
2013-02-20 06:42:00,16.0,2.0,-100.00,NNE,28,2.0,4.0,53,0.00,,,0.00,0.000000,,2013-02-20 13:42:00,
2013-02-20 06:51:00,16.0,2.0,-100.00,NNE,28,2.0,4.0,53,0.00,,,0.00,0.000000,,2013-02-20 13:51:00,
2013-02-20 07:21:00,15.0,2.0,-100.00,East,97,1.0,4.0,55,0.00,,,0.00,0.000000,,2013-02-20 14:21:00,
2013-02-20 07:32:00,15.0,2.0,-100.00,East,97,1.0,4.0,55,0.00,,,0.00,0.000000,,2013-02-20 14:32:00,
2013-02-20 07:42:00,15.0,2.0,-100.00,East,97,1.0,4.0,55,0.00,,,0.00,0.000000,,2013-02-20 14:42:00,
2013-02-20 07:52:00,15.0,2.0,-100.00,East,97,1.0,4.0,55,0.00,,,0.00,0.000000,,2013-02-20 14:52:00,
2013-02-20 08:22:00,18.0,3.0,-100.00,ESE,105,2.0,4.0,52,0.00,,,0.00,32.000000,,2013-02-20 15:22:00,
2013-02-20 08:32:00,18.0,3.0,-100.00,ESE,105,2.0,4.0,52,0.00,,,0.00,32.000000,,2013-02-20 15:32:00,
2013-02-20 08:42:00,18.0,3.0,-100.00,ESE,105,2.0,4.0,52,0.00,,,0.00,32.000000,,2013-02-20 15:42:00,
2013-02-20 08:52:00,18.0,3.0,-100.00,ESE,105,2.0,4.0,52,0.00,,,0.00,32.000000,,2013-02-20 15:52:00,
2013-02-20 09:21:00,23.0,4.0,-100.00,SE,145,1.0,3.0,44,0.00,,,0.00,111.000000,,2013-02-20 16:21:00,
2013-02-20 09:32:00,23.0,4.0,-100.00,SE,145,1.0,3.0,44,0.00,,,0.00,111.000000,,2013-02-20 16:32:00,
2013-02-20 09:42:00,23.0,4.0,-100.00,SE,145,1.0,3.0,44,0.00,,,0.00,111.000000,,2013-02-20 16:42:00,
2013-02-20 09:52:00,23.0,4.0,-100.00,SE,145,1.0,3.0,44,0.00,,,0.00,111.000000,,2013-02-20 16:52:00,
2013-02-20 10:21:00,28.0,5.0,-100.00,West,280,2.0,4.0,37,0.00,,,0.00,229.000000,,2013-02-20 17:21:00,
2013-02-20 10:32:00,28.0,5.0,-100.00,West,280,2.0,4.0,37,0.00,,,0.00,229.000000,,2013-02-20 17:32:00,
2013-02-20 10:42:00,28.0,5.0,-100.00,West,280,2.0,4.0,37,0.00,,,0.00,229.000000,,2013-02-20 17:42:00,
2013-02-20 10:52:00,28.0,5.0,-100.00,West,280,2.0,4.0,37,0.00,,,0.00,229.000000,,2013-02-20 17:52:00,
2013-02-20 11:21:00,33.0,6.0,-100.00,West,274,4.0,7.0,31,0.00,,,0.00,412.000000,,2013-02-20 18:21:00,
2013-02-20 11:32:00,33.0,6.0,-100.00,West,274,4.0,7.0,31,0.00,,,0.00,412.000000,,2013-02-20 18:32:00,
2013-02-20 11:42:00,33.0,6.0,-100.00,West,274,4.0,7.0,31,0.00,,,0.00,412.000000,,2013-02-20 18:42:00,
2013-02-20 11:52:00,33.0,6.0,-100.00,West,274,4.0,7.0,31,0.00,,,0.00,412.000000,,2013-02-20 18:52:00,
2013-02-20 12:21:00,36.0,3.0,-100.00,SSW,197,4.0,11.0,24,0.00,,,0.00,393.000000,,2013-02-20 19:21:00,
2013-02-20 12:31:00,36.0,3.0,-100.00,SSW,197,4.0,11.0,24,0.00,,,0.00,393.000000,,2013-02-20 19:31:00,
2013-02-20 12:41:00,36.0,3.0,-100.00,SSW,197,4.0,11.0,24,0.00,,,0.00,393.000000,,2013-02-20 19:41:00,
2013-02-20 12:52:00,36.0,3.0,-100.00,SSW,197,4.0,11.0,24,0.00,,,0.00,393.000000,,2013-02-20 19:52:00,
2013-02-20 13:21:00,35.0,4.0,-100.00,SSE,162,8.0,17.0,27,0.00,,,0.00,431.000000,,2013-02-20 20:21:00,
2013-02-20 13:31:00,35.0,4.0,-100.00,SSE,162,8.0,17.0,27,0.00,,,0.00,431.000000,,2013-02-20 20:31:00,
2013-02-20 13:41:00,35.0,4.0,-100.00,SSE,162,8.0,17.0,27,0.00,,,0.00,431.000000,,2013-02-20 20:41:00,
2013-02-20 13:51:00,35.0,4.0,-100.00,SSE,162,8.0,17.0,27,0.00,,,0.00,431.000000,,2013-02-20 20:51:00,
2013-02-20 14:21:00,32.0,12.0,-100.00,SSE,168,7.0,20.0,42,0.00,,,0.00,472.000000,,2013-02-20 21:21:00,
2013-02-20 14:31:00,32.0,12.0,-100.00,SSE,168,7.0,20.0,42,0.00,,,0.00,472.000000,,2013-02-20 21:31:00,
2013-02-20 14:42:00,32.0,12.0,-100.00,SSE,168,7.0,20.0,42,0.00,,,0.00,472.000000,,2013-02-20 21:42:00,
2013-02-20 14:51:00,32.0,12.0,-100.00,SSE,168,7.0,20.0,42,0.00,,,0.00,472.000000,,2013-02-20 21:51:00,
2013-02-20 15:21:00,33.0,8.0,-100.00,SE,143,6.0,14.0,35,0.00,,,0.00,342.000000,,2013-02-20 22:21:00,
2013-02-20 15:31:00,33.0,8.0,-100.00,SE,143,6.0,14.0,35,0.00,,,0.00,342.000000,,2013-02-20 22:31:00,
2013-02-20 15:42:00,33.0,8.0,-100.00,SE,143,6.0,14.0,35,0.00,,,0.00,342.000000,,2013-02-20 22:42:00,
2013-02-20 15:51:00,33.0,8.0,-100.00,SE,143,6.0,14.0,35,0.00,,,0.00,342.000000,,2013-02-20 22:51:00,
2013-02-20 16:22:00,29.0,9.0,-100.00,SSE,159,5.0,13.0,43,0.00,,,0.00,180.000000,,2013-02-20 23:22:00,
2013-02-20 16:32:00,29.0,9.0,-100.00,SSE,159,5.0,13.0,43,0.00,,,0.00,180.000000,,2013-02-20 23:32:00,
2013-02-20 16:42:00,29.0,9.0,-100.00,SSE,159,5.0,13.0,43,0.00,,,0.00,180.000000,,2013-02-20 23:42:00,
2013-02-20 16:52:00,29.0,9.0,-100.00,SSE,159,5.0,13.0,43,0.00,,,0.00,180.000000,,2013-02-20 23:52:00,
2013-02-20 17:21:00,27.0,10.0,-100.00,SSE,155,5.0,10.0,49,0.00,,,0.00,50.000000,,2013-02-21 00:21:00,
2013-02-20 17:32:00,27.0,10.0,-100.00,SSE,155,5.0,10.0,49,0.00,,,0.00,50.000000,,2013-02-21 00:32:00,
2013-02-20 17:42:00,27.0,10.0,-100.00,SSE,155,5.0,10.0,49,0.00,,,0.00,50.000000,,2013-02-21 00:42:00,
2013-02-20 17:52:00,27.0,10.0,-100.00,SSE,155,5.0,10.0,49,0.00,,,0.00,50.000000,,2013-02-21 00:52:00,
2013-02-20 18:21:00,24.0,14.0,-100.00,SE,136,4.0,11.0,65,0.00,,,0.00,15.000000,,2013-02-21 01:21:00,
2013-02-20 18:32:00,24.0,14.0,-100.00,SE,136,4.0,11.0,65,0.00,,,0.00,15.000000,,2013-02-21 01:32:00,
2013-02-20 18:42:00,24.0,14.0,-100.00,SE,136,4.0,11.0,65,0.00,,,0.00,15.000000,,2013-02-21 01:42:00,
2013-02-20 18:51:00,24.0,14.0,-100.00,SE,136,4.0,11.0,65,0.00,,,0.00,15.000000,,2013-02-21 01:51:00,
2013-02-20 19:21:00,23.0,13.0,-100.00,East,81,1.0,6.0,64,0.00,,,0.00,0.000000,,2013-02-21 02:21:00,
2013-02-20 19:32:00,23.0,13.0,-100.00,East,81,1.0,6.0,64,0.00,,,0.00,0.000000,,2013-02-21 02:32:00,
2013-02-20 19:42:00,23.0,13.0,-100.00,East,81,1.0,6.0,64,0.00,,,0.00,0.000000,,2013-02-21 02:42:00,
2013-02-20 19:51:00,23.0,13.0,-100.00,East,81,1.0,6.0,64,0.00,,,0.00,0.000000,,2013-02-21 02:51:00,
2013-02-20 20:21:00,22.0,15.0,-100.00,SE,124,1.0,4.0,74,0.00,,,0.00,0.000000,,2013-02-21 03:21:00,
2013-02-20 20:32:00,22.0,15.0,-100.00,SE,124,1.0,4.0,74,0.00,,,0.00,0.000000,,2013-02-21 03:32:00,
2013-02-20 20:42:00,22.0,15.0,-100.00,SE,124,1.0,4.0,74,0.00,,,0.00,0.000000,,2013-02-21 03:42:00,
2013-02-20 20:51:00,22.0,15.0,-100.00,SE,124,1.0,4.0,74,0.00,,,0.00,0.000000,,2013-02-21 03:51:00,
2013-02-20 21:22:00,19.0,12.0,-100.00,ENE,76,2.0,10.0,74,0.00,,,0.00,0.000000,,2013-02-21 04:22:00,
2013-02-20 21:32:00,19.0,12.0,-100.00,ENE,76,2.0,10.0,74,0.00,,,0.00,0.000000,,2013-02-21 04:32:00,
2013-02-20 21:42:00,19.0,12.0,-100.00,ENE,76,2.0,10.0,74,0.00,,,0.00,0.000000,,2013-02-21 04:42:00,
2013-02-20 21:51:00,19.0,12.0,-100.00,ENE,76,2.0,10.0,74,0.00,,,0.00,0.000000,,2013-02-21 04:51:00,
2013-02-20 22:22:00,16.0,9.0,-100.00,ENE,72,4.0,7.0,72,0.00,,,0.00,0.000000,,2013-02-21 05:22:00,
2013-02-20 22:34:00,16.0,9.0,-100.00,ENE,72,4.0,7.0,72,0.00,,,0.00,0.000000,,2013-02-21 05:34:00,
2013-02-20 22:44:00,16.0,9.0,-100.00,ENE,72,4.0,7.0,72,0.00,,,0.00,0.000000,,2013-02-21 05:44:00,
2013-02-20 22:53:00,16.0,9.0,-100.00,ENE,72,4.0,7.0,72,0.00,,,0.00,0.000000,,2013-02-21 05:53:00,
2013-02-20 23:11:00,16.0,10.0,-100.00,ENE,59,0.0,6.0,77,0.00,,,0.00,0.000000,,2013-02-21 06:11:00,
2013-02-20 23:21:00,16.0,10.0,-100.00,ENE,59,0.0,6.0,77,0.00,,,0.00,0.000000,,2013-02-21 06:21:00,
2013-02-20 23:31:00,16.0,10.0,-100.00,ENE,59,0.0,6.0,77,0.00,,,0.00,0.000000,,2013-02-21 06:31:00,
2013-02-20 23:41:00,16.0,10.0,-100.00,ENE,59,0.0,6.0,77,0.00,,,0.00,0.000000,,2013-02-21 06:41:00,
2013-02-20 23:51:00,16.0,10.0,-100.00,ENE,59,0.0,6.0,77,0.00,,,0.00,0.000000,,2013-02-21 06:51:00,